sensor_id;sensor_type;location;lat;lon;timestamp;pressure;altitude;pressure_sealevel;temperature;humidity
45345;BME280;31078;48.304;11.896;2022-09-25T00:01:36;95890.06;;;12.89;100.00
45345;BME280;31078;48.304;11.896;2022-09-25T00:04:04;95896.53;;;12.84;100.00
45345;BME280;31078;48.304;11.896;2022-09-25T00:06:31;95895.75;;;12.84;100.00
45345;BME280;31078;48.304;11.896;2022-09-25T00:08:58;95896.47;;;12.80;100.00
45345;BME280;31078;48.304;11.896;2022-09-25T00:11:27;95901.44;;;12.78;100.00
45345;BME280;31078;48.304;11.896;2022-09-25T00:13:55;95896.69;;;12.75;100.00
45345;BME280;31078;48.304;11.896;2022-09-25T00:16:23;95896.22;;;12.73;100.00
45345;BME280;31078;48.304;11.896;2022-09-25T00:18:50;95889.41;;;12.67;100.00
45345;BME280;31078;48.304;11.896;2022-09-25T00:21:36;95891.69;;;12.65;100.00
45345;BME280;31078;48.304;11.896;2022-09-25T00:24:05;95896.47;;;12.56;100.00
45345;BME280;31078;48.304;11.896;2022-09-25T00:26:35;95893.38;;;12.58;100.00
45345;BME280;31078;48.304;11.896;2022-09-25T00:29:02;95890.78;;;12.49;100.00
45345;BME280;31078;48.304;11.896;2022-09-25T00:31:30;95894.41;;;12.41;100.00
45345;BME280;31078;48.304;11.896;2022-09-25T00:33:58;95896.00;;;12.42;100.00
45345;BME280;31078;48.304;11.896;2022-09-25T00:36:26;95887.56;;;12.47;100.00
45345;BME280;31078;48.304;11.896;2022-09-25T00:38:56;95878.38;;;12.51;100.00
45345;BME280;31078;48.304;11.896;2022-09-25T00:41:26;95886.44;;;12.60;100.00
45345;BME280;31078;48.304;11.896;2022-09-25T00:43:55;95882.13;;;12.59;100.00
45345;BME280;31078;48.304;11.896;2022-09-25T00:46:25;95882.00;;;12.56;100.00
45345;BME280;31078;48.304;11.896;2022-09-25T00:48:58;95882.34;;;12.54;100.00
45345;BME280;31078;48.304;11.896;2022-09-25T00:51:30;95866.88;;;12.46;100.00
45345;BME280;31078;48.304;11.896;2022-09-25T00:54:09;95864.84;;;12.43;100.00
45345;BME280;31078;48.304;11.896;2022-09-25T00:56:42;95857.53;;;12.35;100.00
45345;BME280;31078;48.304;11.896;2022-09-25T00:59:13;95859.13;;;12.36;100.00
45345;BME280;31078;48.304;11.896;2022-09-25T01:01:41;95863.94;;;12.39;100.00
45345;BME280;31078;48.304;11.896;2022-09-25T01:04:10;95867.56;;;12.31;100.00
45345;BME280;31078;48.304;11.896;2022-09-25T01:06:38;95855.16;;;12.33;100.00
45345;BME280;31078;48.304;11.896;2022-09-25T01:09:06;95864.16;;;12.34;100.00
45345;BME280;31078;48.304;11.896;2022-09-25T01:11:33;95861.41;;;12.34;100.00
45345;BME280;31078;48.304;11.896;2022-09-25T01:14:02;95860.94;;;12.32;100.00
45345;BME280;31078;48.304;11.896;2022-09-25T01:16:35;95855.28;;;12.24;100.00
45345;BME280;31078;48.304;11.896;2022-09-25T01:19:13;95864.81;;;12.18;100.00
45345;BME280;31078;48.304;11.896;2022-09-25T01:21:43;95868.56;;;12.14;100.00
45345;BME280;31078;48.304;11.896;2022-09-25T01:24:28;95866.84;;;12.09;100.00
45345;BME280;31078;48.304;11.896;2022-09-25T01:27:19;95869.13;;;12.07;100.00
45345;BME280;31078;48.304;11.896;2022-09-25T01:30:02;95862.75;;;12.15;100.00
45345;BME280;31078;48.304;11.896;2022-09-25T01:32:33;95863.00;;;12.22;100.00
45345;BME280;31078;48.304;11.896;2022-09-25T01:35:04;95862.53;;;12.20;100.00
45345;BME280;31078;48.304;11.896;2022-09-25T01:37:39;95856.19;;;12.16;100.00
45345;BME280;31078;48.304;11.896;2022-09-25T01:40:13;95852.97;;;12.14;100.00
45345;BME280;31078;48.304;11.896;2022-09-25T01:42:46;95851.03;;;12.02;100.00
45345;BME280;31078;48.304;11.896;2022-09-25T01:45:18;95844.09;;;12.05;100.00
45345;BME280;31078;48.304;11.896;2022-09-25T01:47:48;95854.34;;;12.08;100.00
45345;BME280;31078;48.304;11.896;2022-09-25T01:50:21;95854.13;;;12.13;100.00
45345;BME280;31078;48.304;11.896;2022-09-25T01:52:52;95846.94;;;12.21;100.00
45345;BME280;31078;48.304;11.896;2022-09-25T01:55:28;95845.72;;;12.18;100.00
45345;BME280;31078;48.304;11.896;2022-09-25T01:58:02;95837.75;;;12.13;100.00
45345;BME280;31078;48.304;11.896;2022-09-25T02:00:36;95837.97;;;11.96;100.00
45345;BME280;31078;48.304;11.896;2022-09-25T02:03:08;95843.97;;;11.89;100.00
45345;BME280;31078;48.304;11.896;2022-09-25T02:05:41;95849.78;;;12.00;100.00
45345;BME280;31078;48.304;11.896;2022-09-25T02:08:13;95842.03;;;11.90;100.00
45345;BME280;31078;48.304;11.896;2022-09-25T02:10:42;95847.03;;;12.00;100.00
45345;BME280;31078;48.304;11.896;2022-09-25T02:13:13;95846.38;;;12.03;100.00
45345;BME280;31078;48.304;11.896;2022-09-25T02:15:46;95851.63;;;12.08;100.00
45345;BME280;31078;48.304;11.896;2022-09-25T02:18:16;95842.75;;;12.11;100.00
45345;BME280;31078;48.304;11.896;2022-09-25T02:21:12;95856.06;;;12.13;100.00
45345;BME280;31078;48.304;11.896;2022-09-25T02:23:48;95854.13;;;12.01;100.00
45345;BME280;31078;48.304;11.896;2022-09-25T02:26:23;95859.91;;;11.99;100.00
45345;BME280;31078;48.304;11.896;2022-09-25T02:28:50;95857.28;;;12.03;100.00
45345;BME280;31078;48.304;11.896;2022-09-25T02:31:22;95860.47;;;12.05;100.00
45345;BME280;31078;48.304;11.896;2022-09-25T02:33:53;95848.41;;;11.94;100.00
45345;BME280;31078;48.304;11.896;2022-09-25T02:36:20;95862.28;;;11.89;100.00
45345;BME280;31078;48.304;11.896;2022-09-25T02:38:49;95851.75;;;11.79;100.00
45345;BME280;31078;48.304;11.896;2022-09-25T02:41:23;95853.81;;;11.69;100.00
45345;BME280;31078;48.304;11.896;2022-09-25T02:44:01;95855.25;;;11.67;100.00
45345;BME280;31078;48.304;11.896;2022-09-25T02:46:40;95858.69;;;11.76;100.00
45345;BME280;31078;48.304;11.896;2022-09-25T02:49:15;95853.34;;;11.80;100.00
45345;BME280;31078;48.304;11.896;2022-09-25T02:51:55;95851.66;;;11.75;100.00
45345;BME280;31078;48.304;11.896;2022-09-25T02:54:28;95856.06;;;11.80;100.00
45345;BME280;31078;48.304;11.896;2022-09-25T02:57:01;95861.06;;;11.77;100.00
45345;BME280;31078;48.304;11.896;2022-09-25T02:59:33;95856.19;;;11.71;100.00
45345;BME280;31078;48.304;11.896;2022-09-25T03:02:02;95863.09;;;11.68;100.00
45345;BME280;31078;48.304;11.896;2022-09-25T03:04:30;95855.84;;;11.72;100.00
45345;BME280;31078;48.304;11.896;2022-09-25T03:07:01;95844.28;;;11.21;100.00
45345;BME280;31078;48.304;11.896;2022-09-25T03:09:28;95852.81;;;11.20;100.00
45345;BME280;31078;48.304;11.896;2022-09-25T03:11:56;95845.91;;;11.22;100.00
45345;BME280;31078;48.304;11.896;2022-09-25T03:14:23;95835.28;;;10.88;100.00
45345;BME280;31078;48.304;11.896;2022-09-25T03:16:54;95830.63;;;10.88;100.00
45345;BME280;31078;48.304;11.896;2022-09-25T03:19:24;95820.94;;;11.00;100.00
45345;BME280;31078;48.304;11.896;2022-09-25T03:21:54;95828.09;;;11.04;100.00
45345;BME280;31078;48.304;11.896;2022-09-25T03:24:21;95821.31;;;11.10;100.00
45345;BME280;31078;48.304;11.896;2022-09-25T03:26:47;95824.91;;;11.23;100.00
45345;BME280;31078;48.304;11.896;2022-09-25T03:29:14;95818.22;;;11.33;100.00
45345;BME280;31078;48.304;11.896;2022-09-25T03:31:41;95823.94;;;11.40;100.00
45345;BME280;31078;48.304;11.896;2022-09-25T03:34:10;95824.38;;;11.42;100.00
45345;BME280;31078;48.304;11.896;2022-09-25T03:36:41;95824.50;;;11.33;100.00
45345;BME280;31078;48.304;11.896;2022-09-25T03:39:08;95814.84;;;11.36;100.00
45345;BME280;31078;48.304;11.896;2022-09-25T03:41:35;95820.53;;;11.43;100.00
45345;BME280;31078;48.304;11.896;2022-09-25T03:44:04;95816.56;;;11.40;100.00
45345;BME280;31078;48.304;11.896;2022-09-25T03:46:33;95811.56;;;11.42;100.00
45345;BME280;31078;48.304;11.896;2022-09-25T03:49:00;95810.53;;;11.47;100.00
45345;BME280;31078;48.304;11.896;2022-09-25T03:51:28;95799.97;;;11.45;100.00
45345;BME280;31078;48.304;11.896;2022-09-25T03:53:57;95804.22;;;11.55;100.00
45345;BME280;31078;48.304;11.896;2022-09-25T03:56:26;95808.31;;;11.61;100.00
45345;BME280;31078;48.304;11.896;2022-09-25T03:58:53;95807.88;;;11.59;100.00
45345;BME280;31078;48.304;11.896;2022-09-25T04:01:20;95803.06;;;11.56;100.00
45345;BME280;31078;48.304;11.896;2022-09-25T04:03:48;95801.00;;;11.53;100.00
45345;BME280;31078;48.304;11.896;2022-09-25T04:06:18;95800.22;;;11.53;100.00
45345;BME280;31078;48.304;11.896;2022-09-25T04:08:46;95807.41;;;11.57;100.00
45345;BME280;31078;48.304;11.896;2022-09-25T04:11:15;95809.88;;;11.50;100.00
45345;BME280;31078;48.304;11.896;2022-09-25T04:13:42;95813.06;;;11.52;100.00
45345;BME280;31078;48.304;11.896;2022-09-25T04:16:10;95811.91;;;11.53;100.00
45345;BME280;31078;48.304;11.896;2022-09-25T04:18:37;95810.13;;;11.57;100.00
45345;BME280;31078;48.304;11.896;2022-09-25T04:21:06;95807.16;;;11.50;100.00
45345;BME280;31078;48.304;11.896;2022-09-25T04:23:33;95807.16;;;11.50;100.00
45345;BME280;31078;48.304;11.896;2022-09-25T04:25:59;95800.56;;;11.51;100.00
45345;BME280;31078;48.304;11.896;2022-09-25T04:28:28;95792.16;;;11.44;100.00
45345;BME280;31078;48.304;11.896;2022-09-25T04:30:57;95802.13;;;11.40;100.00
45345;BME280;31078;48.304;11.896;2022-09-25T04:33:24;95797.75;;;11.27;100.00
45345;BME280;31078;48.304;11.896;2022-09-25T04:36:08;95792.66;;;11.25;100.00
45345;BME280;31078;48.304;11.896;2022-09-25T04:38:34;95797.66;;;11.23;100.00
45345;BME280;31078;48.304;11.896;2022-09-25T04:41:01;95802.56;;;11.30;100.00
45345;BME280;31078;48.304;11.896;2022-09-25T04:43:30;95804.47;;;11.29;100.00
45345;BME280;31078;48.304;11.896;2022-09-25T04:45:59;95800.75;;;11.34;100.00
45345;BME280;31078;48.304;11.896;2022-09-25T04:48:26;95794.41;;;11.42;100.00
45345;BME280;31078;48.304;11.896;2022-09-25T04:50:52;95796.59;;;11.48;100.00
45345;BME280;31078;48.304;11.896;2022-09-25T04:53:19;95800.56;;;11.51;100.00
45345;BME280;31078;48.304;11.896;2022-09-25T04:55:47;95804.09;;;11.52;100.00
45345;BME280;31078;48.304;11.896;2022-09-25T04:58:13;95806.38;;;11.49;100.00
45345;BME280;31078;48.304;11.896;2022-09-25T05:00:41;95804.84;;;11.40;100.00
45345;BME280;31078;48.304;11.896;2022-09-25T05:03:08;95802.78;;;11.37;100.00
45345;BME280;31078;48.304;11.896;2022-09-25T05:05:37;95809.38;;;11.36;100.00
45345;BME280;31078;48.304;11.896;2022-09-25T05:08:03;95813.03;;;11.40;100.00
45345;BME280;31078;48.304;11.896;2022-09-25T05:10:31;95815.19;;;11.34;100.00
45345;BME280;31078;48.304;11.896;2022-09-25T05:13:00;95812.56;;;11.38;100.00
45345;BME280;31078;48.304;11.896;2022-09-25T05:15:27;95813.47;;;11.42;100.00
45345;BME280;31078;48.304;11.896;2022-09-25T05:18:02;95810.09;;;11.45;100.00
45345;BME280;31078;48.304;11.896;2022-09-25T05:20:30;95809.41;;;11.48;100.00
45345;BME280;31078;48.304;11.896;2022-09-25T05:22:57;95813.06;;;11.52;100.00
45345;BME280;31078;48.304;11.896;2022-09-25T05:25:24;95817.13;;;11.46;100.00
45345;BME280;31078;48.304;11.896;2022-09-25T05:27:51;95818.69;;;11.35;100.00
45345;BME280;31078;48.304;11.896;2022-09-25T05:30:20;95821.41;;;11.35;100.00
45345;BME280;31078;48.304;11.896;2022-09-25T05:32:47;95823.25;;;11.43;100.00
45345;BME280;31078;48.304;11.896;2022-09-25T05:35:16;95815.91;;;11.43;100.00
45345;BME280;31078;48.304;11.896;2022-09-25T05:37:43;95823.47;;;11.38;100.00
45345;BME280;31078;48.304;11.896;2022-09-25T05:40:10;95831.44;;;11.43;100.00
45345;BME280;31078;48.304;11.896;2022-09-25T05:42:37;95835.25;;;11.30;100.00
45345;BME280;31078;48.304;11.896;2022-09-25T05:45:04;95829.59;;;11.35;100.00
45345;BME280;31078;48.304;11.896;2022-09-25T05:47:31;95838.44;;;11.32;100.00
45345;BME280;31078;48.304;11.896;2022-09-25T05:49:57;95836.84;;;11.31;100.00
45345;BME280;31078;48.304;11.896;2022-09-25T05:52:25;95835.50;;;11.37;100.00
45345;BME280;31078;48.304;11.896;2022-09-25T05:54:52;95837.09;;;11.38;100.00
45345;BME280;31078;48.304;11.896;2022-09-25T05:57:19;95825.28;;;11.34;100.00
45345;BME280;31078;48.304;11.896;2022-09-25T05:59:46;95826.63;;;11.28;100.00
45345;BME280;31078;48.304;11.896;2022-09-25T06:02:14;95824.50;;;11.33;100.00
45345;BME280;31078;48.304;11.896;2022-09-25T06:04:40;95825.38;;;11.37;100.00
45345;BME280;31078;48.304;11.896;2022-09-25T06:07:07;95824.88;;;11.44;100.00
45345;BME280;31078;48.304;11.896;2022-09-25T06:09:36;95829.38;;;11.40;100.00
45345;BME280;31078;48.304;11.896;2022-09-25T06:12:02;95821.28;;;11.31;100.00
45345;BME280;31078;48.304;11.896;2022-09-25T06:14:30;95827.09;;;11.30;100.00
45345;BME280;31078;48.304;11.896;2022-09-25T06:16:57;95833.19;;;11.27;100.00
45345;BME280;31078;48.304;11.896;2022-09-25T06:19:23;95836.13;;;11.21;100.00
45345;BME280;31078;48.304;11.896;2022-09-25T06:21:50;95829.94;;;11.33;100.00
45345;BME280;31078;48.304;11.896;2022-09-25T06:24:22;95831.63;;;11.38;100.00
45345;BME280;31078;48.304;11.896;2022-09-25T06:26:50;95826.88;;;11.35;100.00
45345;BME280;31078;48.304;11.896;2022-09-25T06:29:17;95824.59;;;11.37;100.00
45345;BME280;31078;48.304;11.896;2022-09-25T06:31:43;95822.34;;;11.39;100.00
45345;BME280;31078;48.304;11.896;2022-09-25T06:34:10;95823.94;;;11.40;100.00
45345;BME280;31078;48.304;11.896;2022-09-25T06:36:37;95820.22;;;11.44;100.00
45345;BME280;31078;48.304;11.896;2022-09-25T06:39:04;95818.72;;;11.47;100.00
45345;BME280;31078;48.304;11.896;2022-09-25T06:41:54;95820.16;;;11.32;100.00
45345;BME280;31078;48.304;11.896;2022-09-25T06:44:23;95823.00;;;11.36;100.00
45345;BME280;31078;48.304;11.896;2022-09-25T06:46:52;95816.09;;;11.38;100.00
45345;BME280;31078;48.304;11.896;2022-09-25T06:49:19;95806.69;;;11.48;100.00
45345;BME280;31078;48.304;11.896;2022-09-25T06:51:46;95809.66;;;11.55;100.00
45345;BME280;31078;48.304;11.896;2022-09-25T06:56:53;95809.91;;;11.62;100.00
45345;BME280;31078;48.304;11.896;2022-09-25T06:59:20;95816.28;;;11.66;100.00
45345;BME280;31078;48.304;11.896;2022-09-25T07:01:46;95817.22;;;11.70;100.00
45345;BME280;31078;48.304;11.896;2022-09-25T07:04:13;95820.38;;;11.72;100.00
45345;BME280;31078;48.304;11.896;2022-09-25T07:06:38;95813.78;;;11.73;100.00
45345;BME280;31078;48.304;11.896;2022-09-25T07:09:05;95813.97;;;11.44;100.00
45345;BME280;31078;48.304;11.896;2022-09-25T07:11:31;95820.31;;;11.48;100.00
45345;BME280;31078;48.304;11.896;2022-09-25T07:14:00;95819.22;;;11.61;100.00
45345;BME280;31078;48.304;11.896;2022-09-25T07:16:29;95827.31;;;11.70;100.00
45345;BME280;31078;48.304;11.896;2022-09-25T07:18:57;95823.25;;;11.76;100.00
45345;BME280;31078;48.304;11.896;2022-09-25T07:21:25;95820.41;;;11.85;100.00
45345;BME280;31078;48.304;11.896;2022-09-25T07:23:54;95822.03;;;11.86;100.00
45345;BME280;31078;48.304;11.896;2022-09-25T07:26:24;95819.03;;;11.79;100.00
45345;BME280;31078;48.304;11.896;2022-09-25T07:28:53;95828.47;;;11.81;100.00
45345;BME280;31078;48.304;11.896;2022-09-25T07:31:23;95824.88;;;11.89;100.00
45345;BME280;31078;48.304;11.896;2022-09-25T07:33:50;95828.88;;;11.92;100.00
45345;BME280;31078;48.304;11.896;2022-09-25T07:36:17;95831.34;;;11.85;100.00
45345;BME280;31078;48.304;11.896;2022-09-25T07:38:47;95829.94;;;11.79;100.00
45345;BME280;31078;48.304;11.896;2022-09-25T07:41:14;95815.97;;;11.80;100.00
45345;BME280;31078;48.304;11.896;2022-09-25T07:43:42;95813.16;;;11.89;100.00
45345;BME280;31078;48.304;11.896;2022-09-25T07:46:09;95814.09;;;11.93;100.00
45345;BME280;31078;48.304;11.896;2022-09-25T07:48:38;95819.53;;;12.05;100.00
45345;BME280;31078;48.304;11.896;2022-09-25T07:51:06;95823.53;;;12.08;100.00
45345;BME280;31078;48.304;11.896;2022-09-25T07:53:34;95826.59;;;12.18;100.00
45345;BME280;31078;48.304;11.896;2022-09-25T07:56:02;95823.41;;;11.92;100.00
45345;BME280;31078;48.304;11.896;2022-09-25T07:58:29;95819.75;;;12.00;100.00
45345;BME280;31078;48.304;11.896;2022-09-25T08:03:40;95820.22;;;12.26;100.00
45345;BME280;31078;48.304;11.896;2022-09-25T08:06:08;95816.47;;;12.19;100.00
45345;BME280;31078;48.304;11.896;2022-09-25T08:08:36;95825.44;;;12.32;100.00
45345;BME280;31078;48.304;11.896;2022-09-25T08:11:05;95820.91;;;12.36;100.00
45345;BME280;31078;48.304;11.896;2022-09-25T08:13:32;95818.66;;;12.38;99.30
45345;BME280;31078;48.304;11.896;2022-09-25T08:16:00;95824.19;;;12.41;98.98
45345;BME280;31078;48.304;11.896;2022-09-25T08:18:27;95824.19;;;12.41;99.07
45345;BME280;31078;48.304;11.896;2022-09-25T08:20:59;95822.03;;;12.47;99.88
45345;BME280;31078;48.304;11.896;2022-09-25T08:23:26;95826.16;;;12.53;100.00
45345;BME280;31078;48.304;11.896;2022-09-25T08:25:52;95823.75;;;12.51;100.00
45345;BME280;31078;48.304;11.896;2022-09-25T08:28:19;95817.84;;;12.49;100.00
45345;BME280;31078;48.304;11.896;2022-09-25T08:30:46;95819.06;;;12.64;99.80
45345;BME280;31078;48.304;11.896;2022-09-25T08:33:13;95818.03;;;12.69;99.67
45345;BME280;31078;48.304;11.896;2022-09-25T08:35:39;95815.88;;;12.74;99.35
45345;BME280;31078;48.304;11.896;2022-09-25T08:38:09;95815.19;;;12.65;99.40
45345;BME280;31078;48.304;11.896;2022-09-25T08:40:38;95816.34;;;12.64;99.92
45345;BME280;31078;48.304;11.896;2022-09-25T08:43:10;95813.69;;;12.80;100.00
45345;BME280;31078;48.304;11.896;2022-09-25T08:45:42;95812.78;;;12.76;99.36
45345;BME280;31078;48.304;11.896;2022-09-25T08:48:30;95810.59;;;12.82;99.98
45345;BME280;31078;48.304;11.896;2022-09-25T08:51:15;95824.63;;;12.80;100.00
45345;BME280;31078;48.304;11.896;2022-09-25T08:53:44;95823.25;;;12.86;100.00
45345;BME280;31078;48.304;11.896;2022-09-25T08:56:11;95816.06;;;12.82;100.00
45345;BME280;31078;48.304;11.896;2022-09-25T08:58:46;95822.22;;;12.78;100.00
45345;BME280;31078;48.304;11.896;2022-09-25T09:01:19;95820.44;;;12.70;100.00
45345;BME280;31078;48.304;11.896;2022-09-25T09:03:51;95820.63;;;12.77;100.00
45345;BME280;31078;48.304;11.896;2022-09-25T09:06:22;95825.41;;;12.80;100.00
45345;BME280;31078;48.304;11.896;2022-09-25T09:08:54;95819.47;;;12.78;100.00
45345;BME280;31078;48.304;11.896;2022-09-25T09:11:27;95816.56;;;12.71;100.00
45345;BME280;31078;48.304;11.896;2022-09-25T09:14:00;95828.59;;;12.83;100.00
45345;BME280;31078;48.304;11.896;2022-09-25T09:16:33;95826.63;;;12.95;100.00
45345;BME280;31078;48.304;11.896;2022-09-25T09:19:05;95826.28;;;12.97;97.53
45345;BME280;31078;48.304;11.896;2022-09-25T09:21:34;95816.50;;;12.96;96.05
45345;BME280;31078;48.304;11.896;2022-09-25T09:24:08;95814.75;;;13.03;96.46
45345;BME280;31078;48.304;11.896;2022-09-25T09:26:55;95811.69;;;13.05;96.68
45345;BME280;31078;48.304;11.896;2022-09-25T09:29:47;95812.69;;;13.13;97.00
45345;BME280;31078;48.304;11.896;2022-09-25T09:32:28;95811.22;;;13.03;97.25
45345;BME280;31078;48.304;11.896;2022-09-25T09:35:06;95812.19;;;12.95;97.56
45345;BME280;31078;48.304;11.896;2022-09-25T09:37:48;95810.97;;;13.08;97.38
45345;BME280;31078;48.304;11.896;2022-09-25T09:40:28;95814.25;;;13.14;97.51
45345;BME280;31078;48.304;11.896;2022-09-25T09:43:03;95813.13;;;13.15;96.67
45345;BME280;31078;48.304;11.896;2022-09-25T09:45:40;95810.56;;;13.06;94.50
45345;BME280;31078;48.304;11.896;2022-09-25T09:48:14;95799.44;;;13.27;94.50
45345;BME280;31078;48.304;11.896;2022-09-25T09:50:46;95807.59;;;13.39;95.42
45345;BME280;31078;48.304;11.896;2022-09-25T09:53:23;95809.97;;;13.41;93.84
45345;BME280;31078;48.304;11.896;2022-09-25T09:55:56;95807.34;;;13.44;93.36
45345;BME280;31078;48.304;11.896;2022-09-25T09:58:30;95814.06;;;13.47;93.61
45345;BME280;31078;48.304;11.896;2022-09-25T10:00:59;95807.69;;;13.43;93.01
45345;BME280;31078;48.304;11.896;2022-09-25T10:03:28;95796.50;;;13.48;92.36
45345;BME280;31078;48.304;11.896;2022-09-25T10:05:57;95802.22;;;13.43;91.91
45345;BME280;31078;48.304;11.896;2022-09-25T10:08:25;95800.38;;;13.47;92.19
45345;BME280;31078;48.304;11.896;2022-09-25T10:10:54;95794.38;;;13.57;92.81
45345;BME280;31078;48.304;11.896;2022-09-25T10:13:24;95790.94;;;13.60;94.03
45345;BME280;31078;48.304;11.896;2022-09-25T10:15:56;95799.06;;;13.72;94.30
45345;BME280;31078;48.304;11.896;2022-09-25T10:18:27;95786.19;;;13.73;94.23
45345;BME280;31078;48.304;11.896;2022-09-25T10:20:58;95790.09;;;13.88;92.90
45345;BME280;31078;48.304;11.896;2022-09-25T10:23:32;95787.63;;;13.98;92.24
45345;BME280;31078;48.304;11.896;2022-09-25T10:26:02;95787.56;;;13.95;90.56
45345;BME280;31078;48.304;11.896;2022-09-25T10:28:32;95784.53;;;14.00;89.13
45345;BME280;31078;48.304;11.896;2022-09-25T10:31:01;95789.75;;;13.73;89.90
45345;BME280;31078;48.304;11.896;2022-09-25T10:33:29;95788.66;;;13.94;89.94
45345;BME280;31078;48.304;11.896;2022-09-25T10:35:57;95789.56;;;14.14;91.02
45345;BME280;31078;48.304;11.896;2022-09-25T10:38:31;95798.53;;;14.30;89.93
45345;BME280;31078;48.304;11.896;2022-09-25T10:41:03;95792.13;;;14.22;85.23
45345;BME280;31078;48.304;11.896;2022-09-25T10:43:31;95798.03;;;14.24;84.94
45345;BME280;31078;48.304;11.896;2022-09-25T10:46:11;95797.16;;;14.20;83.74
45345;BME280;31078;48.304;11.896;2022-09-25T10:48:38;95795.94;;;14.02;84.08
45345;BME280;31078;48.304;11.896;2022-09-25T10:51:23;95798.47;;;14.26;84.89
45345;BME280;31078;48.304;11.896;2022-09-25T10:53:51;95790.78;;;14.48;85.36
45345;BME280;31078;48.304;11.896;2022-09-25T10:56:21;95793.78;;;14.43;83.91
45345;BME280;31078;48.304;11.896;2022-09-25T10:58:53;95784.66;;;14.54;82.37
45345;BME280;31078;48.304;11.896;2022-09-25T11:01:29;95781.75;;;14.63;85.54
45345;BME280;31078;48.304;11.896;2022-09-25T11:04:00;95777.28;;;14.74;84.67
45345;BME280;31078;48.304;11.896;2022-09-25T11:06:29;95781.41;;;14.84;85.22
45345;BME280;31078;48.304;11.896;2022-09-25T11:09:04;95779.41;;;15.00;84.79
45345;BME280;31078;48.304;11.896;2022-09-25T11:11:35;95779.31;;;14.77;85.03
45345;BME280;31078;48.304;11.896;2022-09-25T11:14:06;95782.28;;;14.88;86.22
45345;BME280;31078;48.304;11.896;2022-09-25T11:16:46;95784.56;;;14.86;84.88
45345;BME280;31078;48.304;11.896;2022-09-25T11:19:17;95784.66;;;14.90;84.66
45345;BME280;31078;48.304;11.896;2022-09-25T11:21:49;95785.53;;;14.94;84.03
45345;BME280;31078;48.304;11.896;2022-09-25T11:24:25;95786.91;;;14.84;84.02
45345;BME280;31078;48.304;11.896;2022-09-25T11:26:58;95784.66;;;14.90;84.24
45345;BME280;31078;48.304;11.896;2022-09-25T11:29:35;95773.25;;;14.68;83.98
45345;BME280;31078;48.304;11.896;2022-09-25T11:32:10;95772.00;;;14.66;86.02
45345;BME280;31078;48.304;11.896;2022-09-25T11:34:56;95763.59;;;14.74;86.03
45345;BME280;31078;48.304;11.896;2022-09-25T11:37:29;95762.28;;;14.87;86.12
45345;BME280;31078;48.304;11.896;2022-09-25T11:40:02;95762.72;;;14.90;84.48
45345;BME280;31078;48.304;11.896;2022-09-25T11:43:03;95749.41;;;14.88;81.76
45345;BME280;31078;48.304;11.896;2022-09-25T11:45:36;95755.22;;;15.06;82.56
45345;BME280;31078;48.304;11.896;2022-09-25T11:48:11;95751.19;;;15.19;83.49
45345;BME280;31078;48.304;11.896;2022-09-25T11:50:45;95742.44;;;15.33;84.84
45345;BME280;31078;48.304;11.896;2022-09-25T11:53:25;95745.00;;;15.45;83.79
45345;BME280;31078;48.304;11.896;2022-09-25T11:56:06;95746.78;;;15.57;81.37
45345;BME280;31078;48.304;11.896;2022-09-25T11:58:51;95739.44;;;15.61;81.09
45345;BME280;31078;48.304;11.896;2022-09-25T12:01:26;95738.41;;;15.50;80.47
45345;BME280;31078;48.304;11.896;2022-09-25T12:04:10;95740.66;;;15.63;81.20
45345;BME280;31078;48.304;11.896;2022-09-25T12:07:06;95740.81;;;15.51;79.06
45345;BME280;31078;48.304;11.896;2022-09-25T12:09:55;95739.16;;;15.47;77.80
45345;BME280;31078;48.304;11.896;2022-09-25T12:12:31;95737.22;;;15.47;79.08
45345;BME280;31078;48.304;11.896;2022-09-25T12:15:09;95734.75;;;15.42;78.28
45345;BME280;31078;48.304;11.896;2022-09-25T12:17:45;95730.47;;;15.45;77.42
45345;BME280;31078;48.304;11.896;2022-09-25T12:20:18;95728.34;;;15.34;78.75
45345;BME280;31078;48.304;11.896;2022-09-25T12:22:56;95729.09;;;15.12;79.47
45345;BME280;31078;48.304;11.896;2022-09-25T12:25:45;95720.28;;;15.22;79.81
45345;BME280;31078;48.304;11.896;2022-09-25T12:28:21;95718.28;;;15.00;80.95
45345;BME280;31078;48.304;11.896;2022-09-25T12:31:00;95718.00;;;15.05;82.23
45345;BME280;31078;48.304;11.896;2022-09-25T12:33:35;95706.00;;;15.13;81.88
45345;BME280;31078;48.304;11.896;2022-09-25T12:36:05;95716.44;;;15.27;82.56
45345;BME280;31078;48.304;11.896;2022-09-25T12:38:39;95710.19;;;15.26;82.17
45345;BME280;31078;48.304;11.896;2022-09-25T12:41:11;95707.00;;;15.24;81.80
45345;BME280;31078;48.304;11.896;2022-09-25T12:43:48;95710.28;;;15.33;81.75
45345;BME280;31078;48.304;11.896;2022-09-25T12:46:23;95712.16;;;15.49;81.39
45345;BME280;31078;48.304;11.896;2022-09-25T12:48:54;95709.31;;;15.22;80.46
45345;BME280;31078;48.304;11.896;2022-09-25T12:51:25;95706.94;;;15.21;79.74
45345;BME280;31078;48.304;11.896;2022-09-25T12:53:57;95702.50;;;15.35;79.60
45345;BME280;31078;48.304;11.896;2022-09-25T12:56:26;95697.56;;;15.45;79.46
45345;BME280;31078;48.304;11.896;2022-09-25T12:59:01;95693.97;;;15.40;78.63
45345;BME280;31078;48.304;11.896;2022-09-25T13:01:37;95698.00;;;15.47;78.24
45345;BME280;31078;48.304;11.896;2022-09-25T13:04:19;95694.81;;;15.45;78.17
45345;BME280;31078;48.304;11.896;2022-09-25T13:06:51;95690.69;;;15.54;78.85
45345;BME280;31078;48.304;11.896;2022-09-25T13:09:27;95688.19;;;15.46;78.04